createdAt,value
2023-05-19T00:01:21.481Z,8.24
2023-05-19T00:06:25.511Z,8.21
2023-05-19T00:11:28.754Z,8.26
2023-05-19T00:16:31.776Z,8.16
2023-05-19T00:21:33.683Z,8.13
2023-05-19T00:26:35.681Z,8.05
2023-05-19T00:31:40.328Z,7.58
2023-05-19T00:36:44.355Z,7.28
2023-05-19T00:41:48.965Z,7.11
2023-05-19T00:46:50.999Z,7.11
2023-05-19T00:51:53.350Z,7.15
2023-05-19T00:56:57.102Z,6.94
2023-05-19T01:01:59.055Z,7.11
2023-05-19T01:07:01.283Z,6.66
2023-05-19T01:12:03.827Z,6.77
2023-05-19T01:17:29.665Z,6.77
2023-05-19T01:23:01.892Z,6.85
2023-05-19T01:28:06.581Z,6.97
2023-05-19T01:33:15.987Z,7.07
2023-05-19T01:38:19.553Z,6.89
2023-05-19T01:43:25.432Z,6.47
2023-05-19T01:48:29.115Z,6.55
2023-05-19T01:53:32.719Z,6.64
2023-05-19T01:58:38.410Z,6.78
2023-05-19T02:04:03.383Z,6.85
2023-05-19T02:09:16.523Z,6.44
2023-05-19T02:14:34.217Z,6.12
2023-05-19T02:19:40.167Z,6.26
2023-05-19T02:24:42.076Z,6.32
2023-05-19T02:29:43.977Z,6.34
2023-05-19T02:34:45.840Z,6.32
2023-05-19T02:39:48.134Z,6.45
2023-05-19T02:44:50.089Z,6.43
2023-05-19T02:49:52.897Z,6.33
2023-05-19T02:54:54.766Z,6.35
2023-05-19T02:59:56.670Z,6.25
2023-05-19T03:04:58.644Z,6.17
2023-05-19T03:10:03.905Z,6.10
2023-05-19T03:15:07.047Z,6.06
2023-05-19T03:20:10.922Z,6.03
2023-05-19T03:25:12.832Z,5.96
2023-05-19T03:30:15.749Z,5.98
2023-05-19T03:35:37.862Z,5.97
2023-05-19T03:40:41.537Z,6.01
2023-05-19T03:45:46.428Z,6.06
2023-05-19T03:51:07.347Z,6.04
2023-05-19T03:56:13.833Z,6.06
2023-05-19T04:01:15.903Z,6.11
2023-05-19T04:06:19.228Z,6.25
2023-05-19T04:11:21.582Z,6.32
2023-05-19T04:16:23.708Z,6.48
2023-05-19T04:21:25.945Z,6.83
2023-05-19T04:26:31.269Z,7.83
2023-05-19T04:31:34.622Z,10.61
2023-05-19T04:36:38.492Z,13.00
2023-05-19T04:41:43.842Z,14.86
2023-05-19T04:46:46.240Z,16.41
2023-05-19T04:51:52.289Z,17.27
2023-05-19T04:56:59.649Z,18.12
2023-05-19T05:02:04.555Z,19.11
2023-05-19T05:07:06.529Z,19.75
2023-05-19T05:12:09.804Z,19.99
2023-05-19T05:17:14.281Z,19.54
2023-05-19T05:22:17.701Z,18.95
2023-05-19T05:27:19.696Z,16.82
2023-05-19T05:32:22.165Z,14.61
2023-05-19T05:37:24.573Z,13.17
2023-05-19T05:42:29.480Z,12.30
2023-05-19T05:47:32.446Z,11.89
2023-05-19T05:52:40.002Z,11.67
2023-05-19T05:57:43.183Z,11.54
2023-05-19T06:02:50.681Z,11.51
2023-05-19T06:07:55.253Z,11.61
2023-05-19T06:13:01.391Z,11.60
2023-05-19T06:18:03.585Z,11.25
2023-05-19T06:23:05.611Z,11.23
2023-05-19T06:28:07.616Z,11.35
2023-05-19T06:33:09.711Z,11.54
2023-05-19T06:38:14.134Z,11.72
2023-05-19T06:43:17.164Z,11.77
2023-05-19T06:48:30.820Z,11.96
2023-05-19T06:53:34.133Z,12.32
2023-05-19T06:58:40.007Z,12.45
2023-05-19T07:03:43.524Z,12.65
2023-05-19T07:08:47.067Z,12.67
2023-05-19T07:13:49.385Z,12.92
2023-05-19T07:18:57.985Z,13.15
2023-05-19T07:24:00.205Z,13.31
2023-05-19T07:29:03.755Z,14.10
2023-05-19T07:34:06.045Z,16.00
2023-05-19T07:39:08.055Z,17.36
2023-05-19T07:44:10.914Z,17.93
2023-05-19T07:49:12.884Z,18.16
2023-05-19T07:54:14.781Z,17.54
2023-05-19T07:59:16.842Z,17.51
2023-05-19T08:04:18.840Z,18.47
2023-05-19T08:09:20.767Z,19.57
2023-05-19T08:14:22.994Z,20.05
2023-05-19T08:19:25.012Z,20.31
2023-05-19T08:24:30.265Z,20.41
2023-05-19T08:29:32.293Z,21.66
2023-05-19T08:34:34.469Z,22.03
2023-05-19T08:39:36.854Z,21.59
2023-05-19T08:44:40.220Z,21.21
2023-05-19T08:49:45.399Z,20.82
2023-05-19T08:54:55.032Z,20.74
2023-05-19T08:59:58.918Z,21.01
2023-05-19T09:05:01.682Z,20.68
2023-05-19T09:10:04.496Z,20.46
2023-05-19T09:15:09.227Z,20.37
2023-05-19T09:20:13.824Z,20.32
2023-05-19T09:25:25.974Z,20.46
2023-05-19T09:30:30.963Z,20.26
2023-05-19T09:35:35.399Z,21.14
2023-05-19T09:40:37.621Z,21.14
2023-05-19T09:45:39.602Z,21.10
2023-05-19T09:50:44.423Z,20.78
2023-05-19T09:55:47.096Z,20.36
2023-05-19T10:00:50.678Z,21.07
2023-05-19T10:05:53.734Z,21.26
2023-05-19T10:10:56.922Z,20.96
2023-05-19T10:16:00.287Z,20.82
2023-05-19T10:21:02.924Z,21.07
2023-05-19T10:26:06.962Z,20.24
2023-05-19T10:31:14.933Z,20.54
2023-05-19T10:36:47.066Z,20.49
2023-05-19T10:42:12.769Z,19.51
2023-05-19T10:47:14.790Z,19.74
2023-05-19T10:52:21.972Z,19.22
2023-05-19T10:57:32.471Z,18.87
2023-05-19T11:02:41.644Z,18.82
2023-05-19T11:08:06.295Z,18.67
2023-05-19T11:13:08.244Z,18.99
2023-05-19T11:18:10.891Z,19.39
2023-05-19T11:23:20.345Z,19.41
2023-05-19T11:28:28.254Z,19.44
2023-05-19T11:33:32.640Z,20.24
2023-05-19T11:38:35.204Z,20.14
2023-05-19T11:43:37.067Z,19.95
2023-05-19T11:48:39.042Z,20.27
2023-05-19T11:54:05.948Z,20.50
2023-05-19T11:59:08.826Z,20.20
2023-05-19T12:04:10.829Z,19.81
2023-05-19T12:09:12.733Z,20.24
2023-05-19T12:14:15.686Z,20.24
2023-05-19T12:19:17.765Z,20.45
2023-05-19T12:24:20.800Z,20.72
2023-05-19T12:29:22.708Z,20.47
2023-05-19T12:34:25.685Z,20.17
2023-05-19T12:39:29.266Z,20.29
2023-05-19T12:44:39.616Z,20.57
2023-05-19T12:50:00.392Z,20.84
2023-05-19T12:55:07.603Z,21.25
2023-05-19T13:00:25.743Z,21.33
2023-05-19T13:05:29.252Z,21.66
2023-05-19T13:15:37.882Z,21.37
2023-05-19T13:20:41.947Z,21.58
2023-05-19T13:25:45.032Z,21.92
2023-05-19T13:30:49.788Z,21.11
2023-05-19T13:36:18.889Z,21.12
2023-05-19T13:41:29.416Z,21.45
2023-05-19T13:46:44.605Z,21.27
2023-05-19T13:51:50.055Z,21.12
2023-05-19T13:56:54.281Z,21.29
2023-05-19T14:01:58.255Z,21.27
2023-05-19T14:07:06.444Z,21.49
2023-05-19T14:12:20.229Z,21.66
2023-05-19T14:17:27.709Z,21.51
2023-05-19T14:22:29.704Z,20.78
2023-05-19T14:27:31.643Z,20.89
2023-05-19T14:32:34.648Z,21.24
2023-05-19T14:37:41.529Z,21.34
2023-05-19T14:42:43.530Z,21.17
2023-05-19T14:47:53.055Z,21.28
2023-05-19T14:52:56.680Z,21.21
2023-05-19T14:57:59.824Z,20.91
2023-05-19T15:03:03.341Z,20.93
2023-05-19T15:08:06.614Z,20.79
2023-05-19T15:13:09.752Z,20.49
2023-05-19T15:18:13.435Z,20.26
2023-05-19T15:23:15.558Z,20.67
2023-05-19T15:28:18.133Z,21.08
2023-05-19T15:33:20.154Z,21.08
2023-05-19T15:38:22.146Z,21.00
2023-05-19T15:43:24.035Z,21.17
2023-05-19T15:48:28.893Z,21.36
2023-05-19T15:53:31.001Z,20.40
2023-05-19T15:58:32.919Z,20.25
2023-05-19T16:03:34.929Z,20.70
2023-05-19T16:08:38.056Z,21.01
2023-05-19T16:13:39.916Z,20.87
2023-05-19T16:18:44.235Z,20.53
2023-05-19T16:23:46.213Z,20.56
2023-05-19T16:28:48.083Z,20.86
2023-05-19T16:33:50.549Z,20.71
2023-05-19T16:38:53.494Z,20.57
2023-05-19T16:43:55.444Z,20.32
2023-05-19T16:48:57.293Z,19.64
2023-05-19T16:53:59.127Z,19.60
2023-05-19T16:59:01.136Z,19.54
2023-05-19T17:04:03.142Z,19.21
2023-05-19T17:09:05.048Z,19.57
2023-05-19T17:14:09.268Z,19.32
2023-05-19T17:19:12.197Z,19.62
2023-05-19T17:24:14.028Z,19.55
2023-05-19T17:29:15.860Z,19.47
2023-05-19T17:34:17.773Z,18.93
2023-05-19T17:39:20.364Z,18.89
2023-05-19T17:44:22.270Z,19.14
2023-05-19T17:49:25.753Z,19.21
2023-05-19T17:54:28.017Z,19.10
2023-05-19T17:59:30.605Z,19.19
2023-05-19T18:04:32.880Z,19.17
2023-05-19T18:09:37.666Z,19.29
2023-05-19T18:14:39.927Z,19.19
2023-05-19T18:19:41.871Z,19.10
2023-05-19T18:24:44.072Z,18.92
2023-05-19T18:29:45.962Z,18.56
2023-05-19T18:34:49.105Z,18.14
2023-05-19T18:39:51.199Z,17.98
2023-05-19T18:44:53.268Z,17.82
2023-05-19T18:49:55.208Z,17.70
2023-05-19T18:54:57.082Z,17.06
2023-05-19T18:59:58.980Z,16.83
2023-05-19T19:05:01.581Z,16.71
2023-05-19T19:10:03.665Z,16.42
2023-05-19T19:15:06.127Z,16.48
2023-05-19T19:20:08.981Z,16.37
2023-05-19T19:25:10.960Z,16.20
2023-05-19T19:30:13.105Z,16.15
2023-05-19T19:35:16.057Z,16.02
2023-05-19T19:40:17.977Z,16.00
2023-05-19T19:45:20.957Z,15.95
2023-05-19T19:50:23.702Z,15.85
2023-05-19T19:55:25.690Z,15.74
2023-05-19T20:00:27.528Z,15.60
2023-05-19T20:05:29.391Z,15.45
2023-05-19T20:10:31.430Z,15.36
2023-05-19T20:15:33.363Z,15.03
2023-05-19T20:20:35.707Z,15.07
2023-05-19T20:25:53.719Z,14.97
2023-05-19T20:30:56.646Z,14.95
2023-05-19T20:35:58.510Z,14.91
2023-05-19T20:41:00.358Z,14.87
2023-05-19T20:46:03.818Z,14.88
2023-05-19T20:51:06.109Z,14.72
2023-05-19T20:56:10.561Z,14.57
2023-05-19T21:01:12.526Z,14.45
2023-05-19T21:06:14.396Z,14.37
2023-05-19T21:11:16.241Z,14.22
2023-05-19T21:16:18.113Z,14.13
2023-05-19T21:21:19.975Z,14.10
2023-05-19T21:26:22.194Z,13.93
2023-05-19T21:31:24.119Z,13.97
2023-05-19T21:36:26.123Z,14.17
2023-05-19T21:41:27.994Z,14.28
2023-05-19T21:46:29.917Z,14.29
2023-05-19T21:51:32.208Z,14.29
2023-05-19T21:56:34.187Z,14.19
2023-05-19T22:01:36.050Z,14.16
2023-05-19T22:06:37.934Z,14.08
2023-05-19T22:11:40.258Z,14.02
2023-05-19T22:16:42.218Z,13.86
2023-05-19T22:21:44.095Z,13.68
2023-05-19T22:26:47.073Z,13.52
2023-05-19T22:31:48.946Z,13.49
2023-05-19T22:36:50.789Z,13.42
2023-05-19T22:41:52.637Z,13.29
2023-05-19T22:46:54.643Z,13.20
2023-05-19T22:51:56.504Z,13.06
2023-05-19T22:56:58.372Z,12.71
2023-05-19T23:02:00.288Z,12.66
2023-05-19T23:07:02.128Z,12.63
2023-05-19T23:12:04.133Z,12.59
2023-05-19T23:17:06.076Z,12.23
2023-05-19T23:22:08.125Z,11.99
2023-05-19T23:27:09.991Z,11.94
2023-05-19T23:32:11.846Z,12.19
2023-05-19T23:37:13.729Z,12.43
2023-05-19T23:42:15.643Z,12.33
2023-05-19T23:47:17.491Z,12.61
2023-05-19T23:52:19.375Z,12.75
2023-05-19T23:57:21.511Z,12.77
